Time;durP1;ratioP1;P1;durP2;ratioP2;P2;SDS_P1;SDS_P2;PMS_P1;PMS_P2;Temp;Humidity;BMP_temperature;BMP_pressure;BME280_temperature;BME280_humidity;BME280_pressure;Samples;Min_cycle;Max_cycle;Signal;HPM_P1;HPM_P2
2023/08/06 00:00:24;;;;;;;;;;;13.00;99.90;;;;;;5052424;28;20375;-86
2023/08/06 00:02:50;;;;;;;;;;;13.10;99.90;;;;;;5035721;28;19919;-86
2023/08/06 00:05:20;;;;;;;;;;;13.10;99.90;;;;;;5052538;28;19955;-86
2023/08/06 00:07:50;;;;;;;;;;;13.10;99.90;;;;;;5035529;28;20332;-86
2023/08/06 00:10:16;;;;;;;;;;;13.00;99.90;;;;;;5052036;28;19909;-86
2023/08/06 00:12:41;;;;;;;;;;;13.00;99.90;;;;;;5035706;28;20007;-86
2023/08/06 00:15:07;;;;;;;;;;;13.00;99.90;;;;;;5052172;28;19955;-86
2023/08/06 00:17:33;;;;;;;;;;;13.00;99.90;;;;;;5035321;28;20375;-86
2023/08/06 00:20:04;;;;;;;;;;;13.00;99.90;;;;;;5085580;28;19909;-85
2023/08/06 00:22:30;;;;;;;;;;;13.00;99.90;;;;;;5052047;28;20358;-86
2023/08/06 00:24:57;;;;;;;;;;;13.00;99.90;;;;;;5088976;28;19908;-86
2023/08/06 00:27:23;;;;;;;;;;;13.00;99.90;;;;;;5039027;28;20356;-86
2023/08/06 00:29:48;;;;;;;;;;;12.90;99.90;;;;;;5055731;28;20007;-86
2023/08/06 00:32:14;;;;;;;;;;;13.00;99.90;;;;;;5038741;28;19923;-86
2023/08/06 00:34:39;;;;;;;;;;;12.90;99.90;;;;;;5038979;28;20348;-86
2023/08/06 00:37:05;;;;;;;;;;;12.90;99.90;;;;;;5038829;28;19909;-86
2023/08/06 00:39:31;;;;;;;;;;;12.90;99.90;;;;;;5038853;28;19916;-86
2023/08/06 00:41:58;;;;;;;;;;;12.80;99.90;;;;;;5038705;28;19905;-85
2023/08/06 00:44:23;;;;;;;;;;;12.80;99.90;;;;;;5055494;28;19944;-86
2023/08/06 00:50:10;;;;;;;;;;;12.70;99.90;;;;;;5056966;28;20431;-86
2023/08/06 00:52:36;;;;;;;;;;;12.60;99.90;;;;;;5038740;28;19943;-86
2023/08/06 00:55:02;;;;;;;;;;;12.60;99.90;;;;;;5038550;28;20034;-86
2023/08/06 00:57:27;;;;;;;;;;;12.70;99.90;;;;;;5038464;28;19913;-86
2023/08/06 00:59:54;;;;;;;;;;;12.70;99.90;;;;;;5038397;28;19915;-86
2023/08/06 01:02:19;;;;;;;;;;;12.80;99.90;;;;;;5055477;28;19999;-86
2023/08/06 01:04:45;;;;;;;;;;;12.80;99.90;;;;;;5038442;28;19948;-85
2023/08/06 01:07:29;;;;;;;;;;;12.80;99.90;;;;;;5088441;28;19938;-85
2023/08/06 01:10:15;;;;;;;;;;;12.80;99.90;;;;;;5034581;28;19915;-86
2023/08/06 01:16:09;;;;;;;;;;;12.80;99.90;;;;;;5056216;28;19966;-86
2023/08/06 01:18:37;;;;;;;;;;;12.80;99.90;;;;;;5038405;28;19912;-87
2023/08/06 01:21:04;;;;;;;;;;;12.80;99.90;;;;;;5038457;28;19916;-87
2023/08/06 01:23:30;;;;;;;;;;;12.80;99.90;;;;;;5038078;28;19909;-85
2023/08/06 01:26:13;;;;;;;;;;;12.80;99.90;;;;;;5054518;28;19908;-86
2023/08/06 01:28:47;;;;;;;;;;;12.90;99.90;;;;;;5071298;28;19917;-86
2023/08/06 01:31:16;;;;;;;;;;;12.90;99.90;;;;;;5054377;28;19908;-86
2023/08/06 01:33:44;;;;;;;;;;;12.90;99.90;;;;;;5038014;28;20256;-85
2023/08/06 01:39:39;;;;;;;;;;;12.90;99.90;;;;;;5049705;28;20338;-86
2023/08/06 01:42:06;;;;;;;;;;;12.90;99.90;;;;;;5037747;28;19961;-86
2023/08/06 01:44:31;;;;;;;;;;;12.90;99.90;;;;;;5054909;28;20318;-86
2023/08/06 01:46:58;;;;;;;;;;;13.00;99.90;;;;;;5055606;28;19921;-86
2023/08/06 01:49:24;;;;;;;;;;;13.00;99.90;;;;;;5054422;28;20050;-85
2023/08/06 01:51:49;;;;;;;;;;;13.00;99.90;;;;;;5037154;28;20360;-85
2023/08/06 01:54:15;;;;;;;;;;;12.90;99.90;;;;;;5087226;28;19908;-86
2023/08/06 01:56:40;;;;;;;;;;;12.90;99.90;;;;;;5054248;28;19908;-86
2023/08/06 01:59:06;;;;;;;;;;;12.90;99.90;;;;;;5087556;28;19916;-86
2023/08/06 02:01:32;;;;;;;;;;;12.90;99.90;;;;;;5037109;28;20416;-86
2023/08/06 02:03:57;;;;;;;;;;;12.90;99.90;;;;;;5037517;28;19915;-85
2023/08/06 02:06:23;;;;;;;;;;;12.90;99.90;;;;;;5036897;28;19915;-85
2023/08/06 02:08:49;;;;;;;;;;;12.90;99.90;;;;;;5037198;28;19913;-86
2023/08/06 02:11:14;;;;;;;;;;;12.90;99.90;;;;;;5036041;28;19991;-86
2023/08/06 02:13:40;;;;;;;;;;;12.90;99.90;;;;;;5069979;28;19908;-86
2023/08/06 02:16:08;;;;;;;;;;;12.80;99.90;;;;;;5053830;28;19916;-86
2023/08/06 02:18:35;;;;;;;;;;;12.80;99.90;;;;;;5037063;28;19944;-85
2023/08/06 02:21:00;;;;;;;;;;;12.90;99.90;;;;;;5053515;28;20383;-86
2023/08/06 02:26:56;;;;;;;;;;;12.80;99.90;;;;;;5054730;28;20387;-85
2023/08/06 02:29:22;;;;;;;;;;;12.80;99.90;;;;;;5053314;28;19917;-86
2023/08/06 02:31:47;;;;;;;;;;;12.80;99.90;;;;;;5037089;28;19913;-86
2023/08/06 02:34:13;;;;;;;;;;;12.80;99.90;;;;;;5053732;28;19908;-86
2023/08/06 02:36:39;;;;;;;;;;;12.80;99.90;;;;;;5036729;28;20023;-86
2023/08/06 02:39:05;;;;;;;;;;;12.80;99.90;;;;;;5053387;28;19909;-86
2023/08/06 02:41:31;;;;;;;;;;;12.80;99.90;;;;;;5036781;28;19915;-86
2023/08/06 02:43:57;;;;;;;;;;;12.80;99.90;;;;;;5053297;28;19909;-86
2023/08/06 02:46:22;;;;;;;;;;;12.80;99.90;;;;;;5036228;28;20279;-86
2023/08/06 02:48:48;;;;;;;;;;;12.90;99.90;;;;;;5053402;28;19917;-86
2023/08/06 02:51:14;;;;;;;;;;;12.80;99.90;;;;;;5054298;28;19912;-86
2023/08/06 02:53:40;;;;;;;;;;;12.80;99.90;;;;;;5053356;28;19909;-86
2023/08/06 02:56:28;;;;;;;;;;;12.90;99.90;;;;;;5036929;28;19909;-85
2023/08/06 02:59:14;;;;;;;;;;;12.80;99.90;;;;;;5049444;28;20375;-86
2023/08/06 03:02:00;;;;;;;;;;;12.80;99.90;;;;;;5048285;28;19916;-86
2023/08/06 03:04:34;;;;;;;;;;;12.80;99.90;;;;;;5037689;28;19909;-86
2023/08/06 03:07:00;;;;;;;;;;;12.80;99.90;;;;;;5036894;28;20069;-85
2023/08/06 03:09:34;;;;;;;;;;;12.80;99.90;;;;;;5037964;28;19916;-86
2023/08/06 03:12:01;;;;;;;;;;;12.80;99.90;;;;;;5036341;28;19915;-87
2023/08/06 03:14:27;;;;;;;;;;;12.80;99.90;;;;;;5036962;28;19908;-86
2023/08/06 03:16:53;;;;;;;;;;;12.70;99.90;;;;;;5036501;28;19911;-87
2023/08/06 03:19:19;;;;;;;;;;;12.70;99.90;;;;;;5036182;28;19908;-86
2023/08/06 03:21:45;;;;;;;;;;;12.70;99.90;;;;;;5036027;28;20324;-86
2023/08/06 03:24:13;;;;;;;;;;;12.70;99.90;;;;;;5035981;28;19960;-86
2023/08/06 03:26:39;;;;;;;;;;;12.70;99.90;;;;;;5036657;28;19915;-85
2023/08/06 03:29:05;;;;;;;;;;;12.70;99.90;;;;;;5036109;28;20003;-86
2023/08/06 03:31:33;;;;;;;;;;;12.70;99.90;;;;;;5069649;28;20000;-86
2023/08/06 03:33:59;;;;;;;;;;;12.60;99.90;;;;;;5036037;28;19947;-86
2023/08/06 03:36:27;;;;;;;;;;;12.60;99.90;;;;;;5086303;28;19909;-86
2023/08/06 03:38:54;;;;;;;;;;;12.60;99.90;;;;;;5036006;28;19913;-86
2023/08/06 03:41:34;;;;;;;;;;;12.60;99.90;;;;;;5085889;28;19908;-86
2023/08/06 03:44:03;;;;;;;;;;;12.50;99.90;;;;;;5064189;28;19932;-86
2023/08/06 03:46:29;;;;;;;;;;;12.40;99.90;;;;;;5036076;28;20444;-87
2023/08/06 03:48:56;;;;;;;;;;;12.20;99.90;;;;;;5052444;28;19963;-86
2023/08/06 03:51:22;;;;;;;;;;;12.20;99.90;;;;;;5035564;28;19913;-86
2023/08/06 03:53:48;;;;;;;;;;;12.20;99.90;;;;;;5069330;28;19935;-86
2023/08/06 03:56:14;;;;;;;;;;;12.30;99.90;;;;;;5035690;28;19916;-85
2023/08/06 03:58:40;;;;;;;;;;;12.40;99.90;;;;;;5037142;28;19909;-86
2023/08/06 04:01:07;;;;;;;;;;;12.30;99.90;;;;;;5039887;28;19995;-85
2023/08/06 04:03:59;;;;;;;;;;;12.40;99.90;;;;;;5053487;28;19913;-85
2023/08/06 04:06:24;;;;;;;;;;;12.30;99.90;;;;;;5039096;28;19909;-85
2023/08/06 04:08:50;;;;;;;;;;;12.40;99.90;;;;;;5072708;28;19955;-85
2023/08/06 04:11:15;;;;;;;;;;;12.40;99.90;;;;;;5039309;28;20387;-86
2023/08/06 04:13:44;;;;;;;;;;;12.40;99.90;;;;;;5039433;28;20295;-85
2023/08/06 04:16:10;;;;;;;;;;;12.40;99.90;;;;;;5039383;28;19909;-86
2023/08/06 04:18:36;;;;;;;;;;;12.50;99.90;;;;;;5055888;28;19966;-84
2023/08/06 04:21:02;;;;;;;;;;;12.40;99.90;;;;;;5039315;28;19916;-85
2023/08/06 04:23:27;;;;;;;;;;;12.50;99.90;;;;;;5055634;28;19909;-85
2023/08/06 04:25:57;;;;;;;;;;;12.40;99.90;;;;;;5039576;28;20355;-85
2023/08/06 04:28:24;;;;;;;;;;;12.50;99.90;;;;;;5055436;28;20267;-84
2023/08/06 04:30:50;;;;;;;;;;;12.50;99.90;;;;;;5039265;28;19950;-85
2023/08/06 04:33:16;;;;;;;;;;;12.40;99.90;;;;;;5055539;28;19908;-85
2023/08/06 04:35:44;;;;;;;;;;;12.40;99.90;;;;;;5039266;28;19916;-86
2023/08/06 04:38:09;;;;;;;;;;;12.30;99.90;;;;;;5039432;28;19909;-86
2023/08/06 04:40:36;;;;;;;;;;;12.40;99.90;;;;;;5055775;28;19904;-87
2023/08/06 04:43:02;;;;;;;;;;;12.20;99.90;;;;;;5055741;28;20322;-86
2023/08/06 04:45:31;;;;;;;;;;;12.20;99.90;;;;;;5039122;28;20319;-86
2023/08/06 04:48:18;;;;;;;;;;;12.20;99.90;;;;;;5038929;28;19932;-86
2023/08/06 04:50:47;;;;;;;;;;;12.20;99.90;;;;;;5047657;28;19963;-85
2023/08/06 04:53:12;;;;;;;;;;;12.20;99.90;;;;;;5038513;28;19912;-86
2023/08/06 04:55:38;;;;;;;;;;;12.20;99.90;;;;;;5055136;28;19919;-87
2023/08/06 04:58:04;;;;;;;;;;;12.10;99.90;;;;;;5038532;28;19909;-87
2023/08/06 05:00:29;;;;;;;;;;;12.10;99.90;;;;;;5055125;28;19909;-86
2023/08/06 05:02:55;;;;;;;;;;;12.10;99.90;;;;;;5055098;28;19970;-86
2023/08/06 05:05:20;;;;;;;;;;;12.00;99.90;;;;;;5054999;28;20272;-86
2023/08/06 05:07:48;;;;;;;;;;;12.00;99.90;;;;;;5038231;28;19912;-86
2023/08/06 05:10:13;;;;;;;;;;;12.00;99.90;;;;;;5054467;28;19909;-86
2023/08/06 05:12:39;;;;;;;;;;;12.00;99.90;;;;;;5049359;28;19916;-86
2023/08/06 05:15:05;;;;;;;;;;;11.90;99.90;;;;;;5054429;28;19909;-85
2023/08/06 05:17:30;;;;;;;;;;;11.90;99.90;;;;;;5047762;28;19909;-86
2023/08/06 05:19:56;;;;;;;;;;;11.90;99.90;;;;;;5037111;28;19915;-85
2023/08/06 05:22:22;;;;;;;;;;;11.90;99.90;;;;;;5050423;28;19908;-85
2023/08/06 05:24:47;;;;;;;;;;;11.80;99.90;;;;;;5054367;28;19909;-86
2023/08/06 05:27:13;;;;;;;;;;;11.80;99.90;;;;;;5053511;28;19916;-86
2023/08/06 05:29:39;;;;;;;;;;;11.80;99.90;;;;;;5037464;28;19912;-86
2023/08/06 05:32:05;;;;;;;;;;;11.90;99.90;;;;;;5048297;28;19999;-86
2023/08/06 05:34:30;;;;;;;;;;;11.90;99.90;;;;;;5048108;28;19915;-85
2023/08/06 05:36:56;;;;;;;;;;;11.90;99.90;;;;;;5037823;28;19948;-85
2023/08/06 05:39:21;;;;;;;;;;;12.00;99.90;;;;;;5053803;28;19913;-86
2023/08/06 05:41:47;;;;;;;;;;;12.00;99.90;;;;;;5052676;28;19963;-85
2023/08/06 05:44:13;;;;;;;;;;;11.90;99.90;;;;;;5037142;28;20352;-85
2023/08/06 05:46:38;;;;;;;;;;;11.90;99.90;;;;;;5037022;28;20372;-85
2023/08/06 05:49:04;;;;;;;;;;;11.80;99.90;;;;;;5034609;28;19920;-86
2023/08/06 05:51:30;;;;;;;;;;;11.90;99.90;;;;;;5084699;28;20443;-86
2023/08/06 05:53:56;;;;;;;;;;;11.90;99.90;;;;;;5036471;28;20003;-86
2023/08/06 05:56:21;;;;;;;;;;;11.90;99.90;;;;;;5049252;28;20043;-86
2023/08/06 05:58:47;;;;;;;;;;;12.00;99.90;;;;;;5086658;28;20291;-87
2023/08/06 06:01:13;;;;;;;;;;;12.10;99.90;;;;;;5037115;28;19916;-85
2023/08/06 06:03:39;;;;;;;;;;;12.10;99.90;;;;;;5052404;28;19995;-85
2023/08/06 06:06:05;;;;;;;;;;;12.10;99.90;;;;;;5036349;28;19998;-85
2023/08/06 06:08:30;;;;;;;;;;;12.00;99.90;;;;;;5045630;28;19920;-85
2023/08/06 06:10:56;;;;;;;;;;;12.00;99.90;;;;;;5034777;28;19908;-87
2023/08/06 06:13:21;;;;;;;;;;;11.90;99.90;;;;;;5035799;28;20534;-86
2023/08/06 06:15:47;;;;;;;;;;;11.90;99.90;;;;;;5029876;28;19995;-85
2023/08/06 06:18:13;;;;;;;;;;;11.90;99.90;;;;;;5051262;28;19913;-85
2023/08/06 06:20:38;;;;;;;;;;;11.90;99.90;;;;;;5050583;28;19956;-86
2023/08/06 06:23:04;;;;;;;;;;;11.80;99.90;;;;;;5034961;28;19912;-85
2023/08/06 06:25:30;;;;;;;;;;;11.80;99.90;;;;;;5042032;28;19909;-86
2023/08/06 06:27:55;;;;;;;;;;;11.80;99.90;;;;;;5036445;28;19919;-86
2023/08/06 06:30:21;;;;;;;;;;;11.80;99.90;;;;;;5036550;28;19908;-86
2023/08/06 06:32:47;;;;;;;;;;;11.80;99.90;;;;;;5052350;28;20557;-86
2023/08/06 06:35:12;;;;;;;;;;;11.80;99.90;;;;;;5033439;28;19954;-86
2023/08/06 06:37:38;;;;;;;;;;;11.80;99.90;;;;;;5078327;28;19913;-84
2023/08/06 06:40:04;;;;;;;;;;;11.70;99.90;;;;;;5034980;28;20337;-85
2023/08/06 06:42:29;;;;;;;;;;;11.80;99.90;;;;;;5048813;28;20372;-85
2023/08/06 06:44:59;;;;;;;;;;;11.80;99.90;;;;;;5032232;28;20007;-85
2023/08/06 06:47:25;;;;;;;;;;;11.80;99.90;;;;;;5029359;28;19951;-85
2023/08/06 06:49:51;;;;;;;;;;;11.80;99.90;;;;;;5035385;28;19909;-85
2023/08/06 06:52:16;;;;;;;;;;;11.80;99.90;;;;;;5042270;28;19913;-85
2023/08/06 06:54:42;;;;;;;;;;;11.90;99.90;;;;;;5052754;28;19909;-85
2023/08/06 06:57:07;;;;;;;;;;;11.80;99.90;;;;;;5047909;28;19959;-85
2023/08/06 06:59:33;;;;;;;;;;;11.80;99.90;;;;;;5052466;28;19909;-86
2023/08/06 07:01:59;;;;;;;;;;;11.80;99.90;;;;;;5035891;28;19905;-85
2023/08/06 07:04:24;;;;;;;;;;;11.80;99.90;;;;;;5053543;28;19913;-85
2023/08/06 07:06:51;;;;;;;;;;;11.80;99.90;;;;;;5045450;28;19905;-85
2023/08/06 07:09:17;;;;;;;;;;;11.90;99.90;;;;;;5035987;28;19962;-86
2023/08/06 07:11:43;;;;;;;;;;;11.90;99.90;;;;;;5048280;28;20303;-86
2023/08/06 07:14:09;;;;;;;;;;;11.90;99.90;;;;;;5045706;28;19909;-85
2023/08/06 07:16:35;;;;;;;;;;;11.90;99.90;;;;;;5049020;28;20237;-86
2023/08/06 07:19:00;;;;;;;;;;;11.90;99.90;;;;;;5035192;28;19916;-86
2023/08/06 07:21:26;;;;;;;;;;;11.90;99.90;;;;;;5035377;28;19904;-86
2023/08/06 07:23:51;;;;;;;;;;;11.90;99.90;;;;;;5030575;28;19909;-86
2023/08/06 07:26:17;;;;;;;;;;;12.00;99.90;;;;;;5035041;28;19955;-85
2023/08/06 07:28:44;;;;;;;;;;;11.90;99.90;;;;;;5034790;28;19921;-86
2023/08/06 07:31:10;;;;;;;;;;;11.90;99.90;;;;;;5052312;28;19916;-86
2023/08/06 07:33:35;;;;;;;;;;;11.90;99.90;;;;;;5037850;28;20276;-86
2023/08/06 07:36:07;;;;;;;;;;;11.90;99.90;;;;;;5039485;28;19970;-87
2023/08/06 07:38:33;;;;;;;;;;;12.00;99.90;;;;;;5053548;28;20341;-86
2023/08/06 07:41:01;;;;;;;;;;;11.90;99.90;;;;;;5050926;28;19970;-86
2023/08/06 07:43:26;;;;;;;;;;;12.00;99.90;;;;;;5055323;28;19932;-86
2023/08/06 07:45:52;;;;;;;;;;;11.90;99.90;;;;;;5036076;28;20521;-86
2023/08/06 07:48:17;;;;;;;;;;;11.90;99.90;;;;;;5048024;28;19924;-85
2023/08/06 07:50:49;;;;;;;;;;;12.00;99.90;;;;;;5055263;28;19951;-86
2023/08/06 07:53:15;;;;;;;;;;;12.00;99.90;;;;;;5049738;28;19954;-86
2023/08/06 07:55:41;;;;;;;;;;;12.00;99.90;;;;;;5036492;28;20264;-86
2023/08/06 07:58:07;;;;;;;;;;;12.00;99.90;;;;;;5055555;28;20410;-85
2023/08/06 08:00:33;;;;;;;;;;;12.00;99.90;;;;;;5039078;28;20343;-86
2023/08/06 08:02:58;;;;;;;;;;;12.00;99.90;;;;;;5054826;28;19948;-86
2023/08/06 08:05:24;;;;;;;;;;;12.10;99.90;;;;;;5038205;28;20356;-86
2023/08/06 08:07:50;;;;;;;;;;;12.10;99.90;;;;;;5052150;28;19932;-86
2023/08/06 08:10:15;;;;;;;;;;;12.10;99.90;;;;;;5053743;28;19916;-86
2023/08/06 08:12:42;;;;;;;;;;;12.10;99.90;;;;;;5055077;28;19909;-86
2023/08/06 08:15:08;;;;;;;;;;;12.10;99.90;;;;;;5055467;28;19908;-86
2023/08/06 08:17:34;;;;;;;;;;;12.10;99.90;;;;;;5038320;28;19927;-86
2023/08/06 08:20:00;;;;;;;;;;;12.20;99.90;;;;;;5054588;28;19909;-86
2023/08/06 08:22:25;;;;;;;;;;;12.20;99.90;;;;;;5055659;28;20324;-86
2023/08/06 08:24:51;;;;;;;;;;;12.20;99.90;;;;;;5063208;28;19915;-86
2023/08/06 08:27:20;;;;;;;;;;;12.30;99.90;;;;;;5058779;28;19913;-88
2023/08/06 08:29:45;;;;;;;;;;;12.30;99.90;;;;;;5074507;28;19909;-86
2023/08/06 08:32:11;;;;;;;;;;;12.40;99.90;;;;;;5057258;28;20026;-87
2023/08/06 08:38:05;;;;;;;;;;;12.40;99.90;;;;;;5048998;28;19915;-86
2023/08/06 08:40:32;;;;;;;;;;;12.50;99.90;;;;;;5043317;28;20402;-86
2023/08/06 08:43:01;;;;;;;;;;;12.40;99.90;;;;;;5072667;28;20330;-86
2023/08/06 08:45:29;;;;;;;;;;;12.40;99.90;;;;;;5054391;28;20004;-86
2023/08/06 08:47:55;;;;;;;;;;;12.30;99.90;;;;;;5055105;28;19940;-87
2023/08/06 08:50:21;;;;;;;;;;;12.40;99.90;;;;;;5055096;28;19947;-85
2023/08/06 08:52:48;;;;;;;;;;;12.40;99.90;;;;;;5055263;28;19909;-86
2023/08/06 08:55:15;;;;;;;;;;;12.30;99.90;;;;;;5054904;28;20691;-86
2023/08/06 08:57:40;;;;;;;;;;;12.30;99.90;;;;;;5059990;28;19915;-86
2023/08/06 09:00:06;;;;;;;;;;;12.20;99.90;;;;;;5054705;28;19909;-86
2023/08/06 09:02:32;;;;;;;;;;;12.20;99.90;;;;;;5054924;28;19999;-86
2023/08/06 09:05:01;;;;;;;;;;;12.30;99.90;;;;;;5055755;28;19974;-87
2023/08/06 09:07:27;;;;;;;;;;;12.20;99.90;;;;;;5054827;28;20352;-87
2023/08/06 09:09:54;;;;;;;;;;;12.30;99.90;;;;;;5054681;28;20267;-87
2023/08/06 09:12:19;;;;;;;;;;;12.40;99.90;;;;;;5037861;28;19962;-87
2023/08/06 09:14:45;;;;;;;;;;;12.50;99.90;;;;;;5054694;28;20326;-86
2023/08/06 09:17:10;;;;;;;;;;;12.50;99.90;;;;;;5038133;28;19904;-86
2023/08/06 09:19:36;;;;;;;;;;;12.50;99.90;;;;;;5054572;28;20367;-86
2023/08/06 09:22:02;;;;;;;;;;;12.50;99.90;;;;;;5038027;28;19959;-87
2023/08/06 09:24:28;;;;;;;;;;;12.50;99.90;;;;;;5038202;28;20427;-87
2023/08/06 09:27:03;;;;;;;;;;;12.60;99.90;;;;;;5037680;28;20413;-87
2023/08/06 09:29:30;;;;;;;;;;;12.60;99.90;;;;;;5032258;28;19912;-85
2023/08/06 09:31:57;;;;;;;;;;;12.50;99.90;;;;;;5037777;28;19938;-87
2023/08/06 09:34:23;;;;;;;;;;;12.40;99.90;;;;;;5054532;28;19909;-87
2023/08/06 09:36:53;;;;;;;;;;;12.50;99.90;;;;;;5038201;28;19920;-88
2023/08/06 09:39:19;;;;;;;;;;;12.50;99.90;;;;;;5034917;28;20322;-87
2023/08/06 09:41:47;;;;;;;;;;;12.50;99.90;;;;;;5047409;28;20260;-87
2023/08/06 09:44:18;;;;;;;;;;;12.50;99.90;;;;;;5048369;28;19918;-87
2023/08/06 09:46:47;;;;;;;;;;;12.40;99.90;;;;;;5036064;28;19916;-87
2023/08/06 09:49:13;;;;;;;;;;;12.50;99.90;;;;;;5047810;28;20360;-87
2023/08/06 09:51:39;;;;;;;;;;;12.60;99.90;;;;;;5049792;28;19917;-87
2023/08/06 09:54:06;;;;;;;;;;;12.70;99.90;;;;;;5085386;28;19987;-85
2023/08/06 09:56:37;;;;;;;;;;;12.60;99.90;;;;;;5032524;28;19960;-87
2023/08/06 09:59:09;;;;;;;;;;;12.70;99.90;;;;;;5052876;28;20358;-87
2023/08/06 10:01:35;;;;;;;;;;;12.80;99.90;;;;;;5033606;28;19916;-88
2023/08/06 10:04:01;;;;;;;;;;;13.00;99.90;;;;;;5044874;28;19909;-87
2023/08/06 10:06:28;;;;;;;;;;;13.00;99.90;;;;;;5085148;28;19955;-86
2023/08/06 10:08:53;;;;;;;;;;;13.20;99.90;;;;;;5045703;28;19913;-86
2023/08/06 10:11:21;;;;;;;;;;;13.20;99.90;;;;;;5053199;28;19930;-86
2023/08/06 10:13:48;;;;;;;;;;;13.10;99.90;;;;;;5036816;28;19974;-86
2023/08/06 10:16:14;;;;;;;;;;;13.40;99.90;;;;;;5069341;28;19909;-86
2023/08/06 10:18:40;;;;;;;;;;;13.60;99.90;;;;;;5032945;28;19916;-86
2023/08/06 10:21:09;;;;;;;;;;;14.00;99.90;;;;;;5051723;28;19909;-86
2023/08/06 10:23:37;;;;;;;;;;;14.40;99.90;;;;;;5069905;28;19938;-86
2023/08/06 10:26:03;;;;;;;;;;;14.40;99.90;;;;;;5053287;28;19954;-88
2023/08/06 10:28:36;;;;;;;;;;;14.30;99.90;;;;;;5053397;28;20434;-87
2023/08/06 10:31:02;;;;;;;;;;;13.90;99.90;;;;;;5084935;28;20424;-86
2023/08/06 10:33:40;;;;;;;;;;;13.60;99.90;;;;;;5053537;28;19908;-88
2023/08/06 10:36:09;;;;;;;;;;;13.50;99.90;;;;;;5054673;28;19909;-88
2023/08/06 10:38:36;;;;;;;;;;;13.40;99.90;;;;;;5038381;28;20295;-88
2023/08/06 10:41:03;;;;;;;;;;;13.20;99.90;;;;;;5053702;28;20003;-88
2023/08/06 10:43:28;;;;;;;;;;;13.10;99.90;;;;;;5036648;28;19912;-87
2023/08/06 10:45:54;;;;;;;;;;;13.30;99.90;;;;;;5054151;28;19908;-88
2023/08/06 10:48:39;;;;;;;;;;;13.20;99.90;;;;;;5036429;28;19983;-86
2023/08/06 10:51:09;;;;;;;;;;;13.20;99.90;;;;;;5069636;28;20007;-87
2023/08/06 10:53:35;;;;;;;;;;;13.40;99.90;;;;;;5036142;28;20373;-88
2023/08/06 10:56:01;;;;;;;;;;;13.70;99.90;;;;;;5052974;28;20051;-88
2023/08/06 10:58:30;;;;;;;;;;;13.90;99.90;;;;;;5036126;28;19931;-87
2023/08/06 11:00:56;;;;;;;;;;;14.00;99.90;;;;;;5052668;28;19909;-87
2023/08/06 11:03:22;;;;;;;;;;;13.90;99.90;;;;;;5052949;28;19954;-88
2023/08/06 11:05:48;;;;;;;;;;;13.70;99.90;;;;;;5036194;28;19909;-87
2023/08/06 11:08:22;;;;;;;;;;;13.40;99.90;;;;;;5052632;28;19934;-87
2023/08/06 11:10:48;;;;;;;;;;;13.10;99.90;;;;;;5036413;28;20012;-88
2023/08/06 11:13:24;;;;;;;;;;;12.80;99.90;;;;;;5053138;28;19944;-87
2023/08/06 11:15:52;;;;;;;;;;;12.70;99.90;;;;;;5036327;28;19908;-89
2023/08/06 11:18:17;;;;;;;;;;;12.60;99.90;;;;;;5069588;28;20384;-89
2023/08/06 11:20:43;;;;;;;;;;;12.70;99.90;;;;;;5052630;28;19908;-88
2023/08/06 11:23:10;;;;;;;;;;;12.50;99.90;;;;;;5053596;28;19920;-89
2023/08/06 11:25:44;;;;;;;;;;;12.60;99.90;;;;;;5037333;28;20352;-89
2023/08/06 11:28:09;;;;;;;;;;;12.60;99.90;;;;;;5071370;28;19912;-87
2023/08/06 11:30:35;;;;;;;;;;;12.60;99.90;;;;;;5036186;28;19908;-87
2023/08/06 11:33:00;;;;;;;;;;;12.30;99.90;;;;;;5052478;28;19909;-88
2023/08/06 11:35:26;;;;;;;;;;;12.30;99.90;;;;;;5036019;28;19975;-89
2023/08/06 11:37:52;;;;;;;;;;;12.30;99.90;;;;;;5052670;28;19908;-88
2023/08/06 11:40:17;;;;;;;;;;;12.20;99.90;;;;;;5036188;28;19994;-88
2023/08/06 11:42:43;;;;;;;;;;;12.10;99.90;;;;;;5035777;28;19909;-89
2023/08/06 11:45:11;;;;;;;;;;;12.20;99.90;;;;;;5052603;28;19965;-87
2023/08/06 11:47:40;;;;;;;;;;;12.20;99.90;;;;;;5033207;28;19917;-88
2023/08/06 11:50:06;;;;;;;;;;;12.10;99.90;;;;;;5042735;28;19909;-86
2023/08/06 11:52:33;;;;;;;;;;;12.00;99.90;;;;;;5035330;28;20375;-87
2023/08/06 11:55:08;;;;;;;;;;;11.90;99.90;;;;;;5035074;28;19962;-87
2023/08/06 11:57:37;;;;;;;;;;;11.90;99.90;;;;;;5052655;28;20360;-87
2023/08/06 12:00:04;;;;;;;;;;;11.90;99.90;;;;;;5068500;28;19909;-87
2023/08/06 12:02:41;;;;;;;;;;;11.90;99.90;;;;;;5052204;28;19988;-89
2023/08/06 12:05:11;;;;;;;;;;;12.00;99.90;;;;;;5082830;28;19909;-89
2023/08/06 12:07:38;;;;;;;;;;;11.90;99.90;;;;;;5035636;28;19912;-88
2023/08/06 12:10:03;;;;;;;;;;;11.90;99.90;;;;;;5032195;28;19909;-88
2023/08/06 12:12:29;;;;;;;;;;;11.90;99.90;;;;;;5035550;28;19968;-88
2023/08/06 12:14:55;;;;;;;;;;;11.90;99.90;;;;;;5035140;28;20023;-87
2023/08/06 12:17:21;;;;;;;;;;;11.90;99.90;;;;;;5064551;28;19909;-88
2023/08/06 12:19:47;;;;;;;;;;;11.90;99.90;;;;;;5036562;28;19931;-88
2023/08/06 12:22:13;;;;;;;;;;;12.00;99.90;;;;;;5053230;28;19909;-88
2023/08/06 12:24:42;;;;;;;;;;;12.00;99.90;;;;;;5055638;28;19913;-89
2023/08/06 12:27:08;;;;;;;;;;;12.00;99.90;;;;;;5053323;28;19913;-87
2023/08/06 12:29:34;;;;;;;;;;;12.00;99.90;;;;;;5039196;28;20379;-89
2023/08/06 12:31:59;;;;;;;;;;;11.90;99.90;;;;;;5038954;28;20411;-86
2023/08/06 12:34:25;;;;;;;;;;;11.90;99.90;;;;;;5051852;28;19916;-87
2023/08/06 12:40:19;;;;;;;;;;;11.90;99.90;;;;;;5054196;28;19916;-87
2023/08/06 12:42:45;;;;;;;;;;;11.80;99.90;;;;;;5055411;28;19908;-87
2023/08/06 12:45:11;;;;;;;;;;;11.90;99.90;;;;;;5053507;28;19952;-88
2023/08/06 12:47:37;;;;;;;;;;;11.80;99.90;;;;;;5035793;28;20478;-88
2023/08/06 12:50:02;;;;;;;;;;;11.80;99.90;;;;;;5052106;28;19905;-86
2023/08/06 12:52:28;;;;;;;;;;;11.80;99.90;;;;;;5034938;28;19987;-88
2023/08/06 12:54:53;;;;;;;;;;;11.80;99.90;;;;;;5050751;28;19908;-90
2023/08/06 12:57:19;;;;;;;;;;;11.80;99.90;;;;;;5054158;28;20005;-88
2023/08/06 13:00:09;;;;;;;;;;;11.90;99.90;;;;;;5038745;28;19904;-88
2023/08/06 13:02:35;;;;;;;;;;;11.80;99.90;;;;;;5076965;28;20356;-88
2023/08/06 13:05:05;;;;;;;;;;;11.90;99.90;;;;;;5038090;28;19916;-87
2023/08/06 13:07:31;;;;;;;;;;;11.90;99.90;;;;;;5034979;28;19912;-89
2023/08/06 13:09:56;;;;;;;;;;;12.00;99.90;;;;;;5054734;28;19909;-88
2023/08/06 13:12:23;;;;;;;;;;;12.00;99.90;;;;;;5033497;28;19909;-89
2023/08/06 13:14:48;;;;;;;;;;;12.10;99.90;;;;;;5036439;28;19932;-88
2023/08/06 13:17:14;;;;;;;;;;;12.20;99.90;;;;;;5051102;28;19915;-88
2023/08/06 13:19:40;;;;;;;;;;;12.20;99.90;;;;;;5054841;28;20276;-88
2023/08/06 13:22:08;;;;;;;;;;;12.20;99.90;;;;;;5034787;28;19909;-88
2023/08/06 13:24:34;;;;;;;;;;;12.30;99.90;;;;;;5054915;28;19909;-88
2023/08/06 13:27:00;;;;;;;;;;;12.20;99.90;;;;;;5037948;28;19959;-87
2023/08/06 13:29:27;;;;;;;;;;;12.10;99.90;;;;;;5068505;28;20310;-88
2023/08/06 13:31:52;;;;;;;;;;;12.20;99.90;;;;;;5036745;28;19962;-88
2023/08/06 13:34:18;;;;;;;;;;;12.30;99.90;;;;;;5053839;28;19917;-88
2023/08/06 13:36:44;;;;;;;;;;;12.30;99.90;;;;;;5038052;28;20371;-88
2023/08/06 13:39:10;;;;;;;;;;;12.30;99.90;;;;;;5061786;28;19909;-88
2023/08/06 13:41:45;;;;;;;;;;;12.30;99.90;;;;;;5037891;28;20279;-88
2023/08/06 13:44:11;;;;;;;;;;;12.40;99.90;;;;;;5030117;28;20407;-90
2023/08/06 13:46:36;;;;;;;;;;;12.30;99.90;;;;;;5054312;28;19948;-87
2023/08/06 13:49:02;;;;;;;;;;;12.20;99.90;;;;;;5048973;28;19920;-88
2023/08/06 13:51:28;;;;;;;;;;;12.10;99.90;;;;;;5046225;28;19920;-90
2023/08/06 13:53:54;;;;;;;;;;;12.20;99.90;;;;;;5035478;28;19908;-89
2023/08/06 13:56:19;;;;;;;;;;;12.20;99.90;;;;;;5031483;28;19992;-88
2023/08/06 13:58:45;;;;;;;;;;;12.20;99.90;;;;;;5037898;28;19908;-88
2023/08/06 14:01:11;;;;;;;;;;;12.20;99.90;;;;;;5036087;28;19960;-87
2023/08/06 14:03:36;;;;;;;;;;;12.40;99.90;;;;;;5076333;28;20260;-89
2023/08/06 14:06:02;;;;;;;;;;;12.40;99.90;;;;;;5064969;28;20408;-88
2023/08/06 14:08:28;;;;;;;;;;;12.30;99.90;;;;;;5050348;28;19917;-88
2023/08/06 14:10:54;;;;;;;;;;;12.20;99.90;;;;;;5036581;28;20356;-88
2023/08/06 14:13:21;;;;;;;;;;;12.20;99.90;;;;;;5063994;28;19909;-88
2023/08/06 14:15:47;;;;;;;;;;;12.10;99.90;;;;;;5065195;28;19916;-87
2023/08/06 14:18:13;;;;;;;;;;;12.20;99.90;;;;;;5029172;28;20348;-88
2023/08/06 14:20:39;;;;;;;;;;;12.00;99.90;;;;;;5045691;28;20352;-88
2023/08/06 14:23:05;;;;;;;;;;;12.00;99.90;;;;;;5030245;28;19958;-88
2023/08/06 14:25:31;;;;;;;;;;;12.10;99.90;;;;;;5032825;28;19909;-87
2023/08/06 14:28:06;;;;;;;;;;;12.00;99.90;;;;;;5050729;28;20374;-88
2023/08/06 14:30:33;;;;;;;;;;;12.00;99.90;;;;;;5053233;28;19915;-87
2023/08/06 14:33:00;;;;;;;;;;;12.00;99.90;;;;;;5052638;28;19916;-87
2023/08/06 14:35:26;;;;;;;;;;;12.10;99.90;;;;;;5035585;28;19908;-88